ADDS METAR Data INFO
IDs: Format: Raw Decoded Include TAF

Data at: 1244 UTC 19 Oct 2017

KPEO 191153Z AUTO 22005KT 10SM CLR 11/04 A3012 RMK AO2 SLP202 T01060044 10139 20100 58005 TSNO
KPEO 191053Z AUTO 23007KT 10SM CLR 11/04 A3012 RMK AO2 SLP202 T01060039 TSNO
KPEO 190953Z AUTO 21009KT 10SM CLR 12/05 A3014 RMK AO2 SLP205 T01220050 TSNO
KPEO 190853Z AUTO 22010KT 10SM CLR 12/06 A3014 RMK AO2 SLP204 T01220056 57005 TSNO
KPEO 190753Z AUTO 22008KT 10SM CLR 13/06 A3014 RMK AO2 SLP206 T01280056 TSNO
KPEO 190653Z AUTO 22009KT 10SM CLR 13/06 A3015 RMK AO2 SLP207 T01280056 TSNO
KPEO 190553Z AUTO 21010KT 10SM CLR 14/06 A3015 RMK AO2 SLP209 T01390056 10150 20117 57011 TSNO
KPEO 190453Z AUTO 21008KT 10SM CLR 14/06 A3016 RMK AO2 SLP212 T01440056 402220106 TSNO
KPEO 190353Z AUTO 21009KT 10SM CLR 14/06 A3018 RMK AO2 SLP217 T01440061 TSNO
KPEO 190253Z AUTO 25007KT 10SM CLR 12/07 A3019 RMK AO2 SLP222 T01170072 58006 TSNO
KPEO 190153Z AUTO 21007KT 10SM CLR 14/08 A3020 RMK AO2 SLP225 T01390078 TSNO
KPEO 190053Z AUTO 22005KT 10SM CLR 14/08 A3020 RMK AO2 SLP227 T01440078 TSNO
KPEO 182353Z AUTO 20003KT 10SM CLR 12/07 A3020 RMK AO2 SLP230 T01170067 10222 20117 TSNO
KPEO 182253Z AUTO 17005KT 10SM CLR 13/07 A3020 RMK AO2 SLP229 T01330072 TSNO
KPEO 182153Z AUTO 15004KT 10SM CLR 17/08 A3019 RMK AO2 SLP222 T01720083 TSNO
KPEO 182053Z AUTO 17004KT 10SM CLR 22/06 A3020 RMK AO2 SLP222 T02170061 TSNO
KPEO 181953Z AUTO 19006KT 10SM 22/06 A3021 RMK AO2 SLP229 T02170061 TSNO
KPEO 181853Z AUTO 20008KT 10SM CLR 21/06 A3023 RMK AO2 SLP235 T02110061 TSNO
KPEO 181753Z AUTO VRB05KT 10SM CLR 21/07 A3025 RMK AO2 SLP240 T02060072 10206 20106 58018 TSNO
KPEO 181653Z AUTO 19006KT 10SM CLR 19/07 A3028 RMK AO2 SLP251 T01940072 TSNO
KPEO 181553Z AUTO VRB06KT 10SM CLR 18/07 A3030 RMK AO2 SLP259 T01830072 TSNO
KPEO 181453Z AUTO 20006KT 10SM CLR 16/07 A3030 RMK AO2 SLP259 T01610072 51008 TSNO